Aérodrome :
LOGIN :

S'inscrire | Disclaimer

   EN    FR    IT 

 










Légende :    VFR   VFR Marginal   IFR   IFR Intensif   IFR Très Intensif
Visi : 
Plafond : 
>= 8 km
>= 3000ft
5 à 8 km
1000 à 3000 ft
1500m à 5 km
500 à 1000 ft
800 à 1500m
200 à 500 ft
< 800m
< 200 ft
Symboles :   Orages  Brouillard  Fortes neiges  Fortes précipitations  Vent > 20 kt
SIGMETs :   Divers  Orages  Givrage  Turbulence  Onde Orograph.  Cendres Volcan.






- Altitude de l'aérodrome : 665 ft
- Code IATA : NOC


EIKN - Connaught / Knock- Ireland West

DERNIER METAR :
  • 241200Z 28025KT 9999 FEW020 BKN028 06/02 Q1001 NOSIG

METARs EXPIRÉS :
  • 241130Z 28019G31KT 9999 BKN018 BKN020 05/03 Q1001 NOSIG
  • 241100Z 28018KT 250V320 9999 FEW012 BKN014 BKN020 05/04 Q1000 NOSIG
  • 241030Z 28018G28KT 9999 FEW008 BKN009 BKN015 05/04 Q0999 BECMG BKN012
  • 241000Z 29016G26KT 9999 FEW006 BKN008 BKN017 05/05 Q0999 BECMG BKN012
  • 240930Z 27016KT 9999 FEW006 BKN007 BKN016 06/06 Q0998 BECMG SCT007

TAF TAF EIKN
Valide du 24 à 12h jusqu'au 25 à 12h UTC


241100Z 2412/2512 29020G33KT 9999 FEW012 BKN020
TEMPO 2412/2413 BKN012
TEMPO 2415/2512 -SHRAGS SCT018CB
BECMG 2418/2420 25012KT
PROB40
TEMPO 2421/2512 27015G27KT 3000 SHGS BKN007



MET'MAP, la Météo Aéronautique d'un coup d'oeil ! - Copyright ORBIFLY Décembre 2007 - Disclaimer

ORBIFLY MET'MAP TEAM :

Programmation & Développement : Alexandra Zaïnal
Sur une idée originale de : Baudouin d'Aumeries
Assistance à la programmation : Marc-Olivier Méhu
Soutien technique & logistique : Manuel Goepfert

Contact : metmap@orbifly.com




SOURCES & CREDITS :

   NOAA